createdAt,value
2018-06-22T00:01:47.058Z,1.33
2018-06-22T00:04:15.028Z,1.10
2018-06-22T00:06:42.857Z,1.57
2018-06-22T00:09:11.282Z,1.20
2018-06-22T00:11:39.188Z,1.60
2018-06-22T00:14:07.321Z,1.50
2018-06-22T00:16:35.033Z,1.17
2018-06-22T00:19:02.784Z,1.13
2018-06-22T00:21:31.254Z,1.00
2018-06-22T00:23:59.194Z,1.37
2018-06-22T00:26:27.520Z,1.67
2018-06-22T00:28:55.475Z,1.10
2018-06-22T00:31:24.062Z,1.30
2018-06-22T00:33:51.860Z,1.23
2018-06-22T00:36:19.744Z,1.03
2018-06-22T00:38:47.601Z,1.30
2018-06-22T00:41:15.462Z,0.97
2018-06-22T00:43:43.332Z,0.97
2018-06-22T00:46:11.192Z,0.97
2018-06-22T00:48:39.064Z,1.10
2018-06-22T00:51:07.016Z,1.00
2018-06-22T00:53:40.212Z,1.03
2018-06-22T00:56:08.025Z,1.00
2018-06-22T00:58:35.868Z,1.67
2018-06-22T01:01:03.653Z,1.10
2018-06-22T01:03:31.500Z,1.07
2018-06-22T01:05:59.365Z,1.03
2018-06-22T01:08:27.232Z,1.30
2018-06-22T01:10:54.996Z,1.13
2018-06-22T01:13:22.705Z,0.90
2018-06-22T01:15:50.524Z,1.07
2018-06-22T01:18:19.179Z,1.03
2018-06-22T01:20:47.081Z,1.27
2018-06-22T01:23:15.527Z,1.13
2018-06-22T01:25:43.317Z,1.00
2018-06-22T01:28:11.320Z,1.10
2018-06-22T01:30:39.222Z,1.00
2018-06-22T01:33:06.929Z,1.00
2018-06-22T01:35:35.265Z,1.00
2018-06-22T01:38:03.076Z,0.90
2018-06-22T01:40:31.668Z,1.20
2018-06-22T01:42:59.580Z,1.10
2018-06-22T01:45:27.400Z,1.10
2018-06-22T01:47:55.296Z,1.10
2018-06-22T01:50:23.140Z,1.00
2018-06-22T01:52:51.673Z,1.10
2018-06-22T01:55:19.489Z,1.40
2018-06-22T01:57:47.136Z,1.00
2018-06-22T02:00:15.021Z,1.20
2018-06-22T02:02:42.720Z,1.10
2018-06-22T02:05:11.121Z,1.07
2018-06-22T02:07:38.928Z,1.00
2018-06-22T02:10:06.922Z,1.00
2018-06-22T02:12:34.868Z,1.40
2018-06-22T02:15:02.580Z,1.13
2018-06-22T02:17:30.280Z,1.47
2018-06-22T02:19:58.737Z,1.13
2018-06-22T02:22:26.569Z,1.37
2018-06-22T02:24:54.460Z,1.10
2018-06-22T02:27:22.248Z,1.17
2018-06-22T02:29:49.932Z,1.20
2018-06-22T02:32:17.809Z,1.50
2018-06-22T02:34:45.692Z,1.33
2018-06-22T02:37:13.582Z,1.07
2018-06-22T02:39:41.408Z,1.40
2018-06-22T02:42:09.197Z,1.10
2018-06-22T02:44:37.163Z,1.20
2018-06-22T02:47:05.027Z,0.83
2018-06-22T02:49:33.534Z,1.00
2018-06-22T02:52:01.404Z,0.80
2018-06-22T02:54:29.268Z,1.03
2018-06-22T02:56:57.104Z,0.93
2018-06-22T02:59:25.699Z,1.17
2018-06-22T03:01:53.463Z,1.07
2018-06-22T03:04:21.341Z,1.13
2018-06-22T03:06:49.241Z,1.23
2018-06-22T03:09:16.951Z,1.30
2018-06-22T03:11:44.844Z,1.07
2018-06-22T03:14:13.163Z,1.00
2018-06-22T03:16:41.716Z,1.17
2018-06-22T03:19:09.349Z,0.87
2018-06-22T03:21:37.301Z,1.57
2018-06-22T03:24:05.208Z,1.03
2018-06-22T03:26:33.128Z,0.90
2018-06-22T03:29:01.489Z,0.93
2018-06-22T03:31:29.328Z,1.03
2018-06-22T03:33:57.230Z,1.00
2018-06-22T03:36:25.105Z,1.20
2018-06-22T03:38:52.996Z,1.30
2018-06-22T03:41:20.945Z,1.23
2018-06-22T03:43:48.779Z,1.00
2018-06-22T03:46:16.808Z,0.90
2018-06-22T03:48:44.884Z,0.90
2018-06-22T03:51:12.884Z,1.20
2018-06-22T03:53:40.738Z,1.20
2018-06-22T03:56:08.636Z,1.00
2018-06-22T03:58:36.484Z,0.90
2018-06-22T04:01:04.381Z,1.10
2018-06-22T04:03:32.042Z,1.40
2018-06-22T04:05:59.864Z,1.47
2018-06-22T04:08:27.757Z,1.30
2018-06-22T04:10:55.645Z,1.23
2018-06-22T04:13:23.386Z,1.50
2018-06-22T04:15:51.071Z,1.07
2018-06-22T04:18:19.078Z,1.33
2018-06-22T04:20:46.673Z,1.40
2018-06-22T04:23:14.272Z,1.83
2018-06-22T04:25:41.865Z,1.47
2018-06-22T04:28:09.559Z,1.70
2018-06-22T04:30:37.156Z,1.30
2018-06-22T04:33:04.885Z,1.10
2018-06-22T04:35:32.473Z,1.63
2018-06-22T04:38:00.174Z,1.40
2018-06-22T04:40:27.823Z,1.67
2018-06-22T04:42:55.553Z,1.98
2018-06-22T04:45:23.180Z,1.55
2018-06-22T04:47:50.803Z,1.55
2018-06-22T04:50:18.420Z,1.42
2018-06-22T04:52:46.021Z,1.62
2018-06-22T04:55:13.621Z,1.30
2018-06-22T04:57:41.225Z,1.60
2018-06-22T05:00:09.001Z,1.37
2018-06-22T05:02:36.892Z,1.37
2018-06-22T05:05:04.876Z,1.20
2018-06-22T05:07:32.476Z,1.40
2018-06-22T05:10:00.125Z,1.55
2018-06-22T05:12:27.783Z,1.50
2018-06-22T05:14:55.390Z,1.20
2018-06-22T05:17:23.092Z,1.60
2018-06-22T05:19:50.782Z,1.77
2018-06-22T05:22:18.532Z,1.52
2018-06-22T05:24:46.219Z,1.37
2018-06-22T05:27:13.860Z,1.47
2018-06-22T05:29:41.523Z,1.70
2018-06-22T05:32:09.233Z,2.55
2018-06-22T05:34:36.917Z,1.70
2018-06-22T05:37:05.297Z,1.47
2018-06-22T05:39:32.913Z,1.67
2018-06-22T05:42:00.600Z,1.82
2018-06-22T05:44:28.239Z,1.50
2018-06-22T05:46:55.841Z,2.10
2018-06-22T05:49:23.458Z,1.70
2018-06-22T05:51:51.171Z,1.90
2018-06-22T05:54:18.868Z,1.67
2018-06-22T05:56:46.627Z,1.47
2018-06-22T05:59:14.520Z,2.08
2018-06-22T06:01:42.391Z,1.45
2018-06-22T06:04:10.531Z,1.80
2018-06-22T06:06:40.042Z,1.52
2018-06-22T06:09:09.748Z,1.55
2018-06-22T06:11:37.572Z,1.92
2018-06-22T06:14:05.423Z,1.92
2018-06-22T06:16:33.385Z,1.77
2018-06-22T06:19:01.820Z,1.82
2018-06-22T06:21:29.484Z,1.40
2018-06-22T06:23:57.357Z,1.57
2018-06-22T06:26:25.276Z,1.57
2018-06-22T06:28:53.993Z,1.70
2018-06-22T06:31:21.846Z,1.70
2018-06-22T06:33:49.700Z,1.25
2018-06-22T06:36:17.668Z,1.50
2018-06-22T06:38:46.272Z,1.40
2018-06-22T06:41:14.146Z,1.80
2018-06-22T06:43:42.707Z,1.50
2018-06-22T06:46:10.884Z,1.10
2018-06-22T06:48:39.407Z,1.67
2018-06-22T06:51:08.633Z,1.50
2018-06-22T06:53:36.544Z,1.30
2018-06-22T06:56:04.409Z,1.23
2018-06-22T06:58:32.384Z,1.27
2018-06-22T07:01:00.357Z,1.30
2018-06-22T07:03:28.352Z,1.53
2018-06-22T07:05:56.325Z,1.00
2018-06-22T07:08:24.451Z,1.63
2018-06-22T07:10:53.292Z,1.30
2018-06-22T07:13:21.259Z,1.47
2018-06-22T07:15:49.968Z,1.20
2018-06-22T07:18:17.944Z,1.10
2018-06-22T07:20:46.003Z,1.30
2018-06-22T07:23:14.568Z,1.47
2018-06-22T07:25:42.455Z,1.10
2018-06-22T07:28:10.380Z,0.87
2018-06-22T07:30:38.416Z,1.00
2018-06-22T07:33:06.315Z,1.00
2018-06-22T07:35:34.293Z,1.13
2018-06-22T07:38:02.316Z,1.43
2018-06-22T07:40:30.224Z,0.90
2018-06-22T07:42:58.257Z,1.37
2018-06-22T07:45:26.942Z,1.00
2018-06-22T07:47:55.554Z,0.80
2018-06-22T07:50:23.222Z,1.77
2018-06-22T07:52:51.202Z,1.10
2018-06-22T07:55:19.105Z,1.20
2018-06-22T07:57:47.070Z,1.00
2018-06-22T08:00:14.917Z,0.90
2018-06-22T08:02:42.676Z,0.70
2018-06-22T08:05:10.553Z,1.03
2018-06-22T08:07:38.427Z,0.60
2018-06-22T08:10:06.465Z,0.80
2018-06-22T08:12:34.977Z,0.93
2018-06-22T08:15:02.664Z,0.80
2018-06-22T08:17:31.373Z,0.83
2018-06-22T08:19:59.188Z,1.07
2018-06-22T08:22:27.714Z,0.90
2018-06-22T08:24:55.637Z,0.80
2018-06-22T08:27:23.330Z,0.90
2018-06-22T08:29:51.107Z,1.20
2018-06-22T08:32:19.832Z,1.00
2018-06-22T08:34:47.645Z,1.30
2018-06-22T08:37:15.490Z,1.13
2018-06-22T08:39:43.347Z,1.10
2018-06-22T08:42:11.276Z,1.20
2018-06-22T08:44:39.753Z,1.00
2018-06-22T08:47:07.592Z,1.00
2018-06-22T08:49:35.365Z,0.93
2018-06-22T08:52:03.262Z,0.83
2018-06-22T08:54:31.292Z,1.10
2018-06-22T08:56:59.348Z,1.30
2018-06-22T08:59:27.212Z,1.07
2018-06-22T09:01:54.994Z,1.20
2018-06-22T09:04:22.652Z,1.30
2018-06-22T09:06:51.160Z,1.10
2018-06-22T09:09:19.549Z,1.00
2018-06-22T09:11:47.422Z,0.90
2018-06-22T09:14:15.267Z,1.17
2018-06-22T09:16:43.120Z,1.03
2018-06-22T09:19:11.396Z,0.90
2018-06-22T09:21:39.660Z,0.90
2018-06-22T09:24:07.569Z,1.03
2018-06-22T09:26:35.636Z,1.10
2018-06-22T09:29:03.310Z,0.90
2018-06-22T09:31:31.233Z,0.90
2018-06-22T09:33:59.112Z,1.13
2018-06-22T09:36:26.888Z,1.27
2018-06-22T09:38:54.844Z,1.03
2018-06-22T09:41:22.649Z,1.03
2018-06-22T09:43:50.502Z,0.87
2018-06-22T09:46:18.424Z,0.80
2018-06-22T09:48:46.528Z,0.80
2018-06-22T09:51:14.400Z,0.87
2018-06-22T09:53:42.561Z,1.20
2018-06-22T09:56:10.405Z,1.10
2018-06-22T09:58:38.200Z,1.00
2018-06-22T10:01:06.096Z,1.00
2018-06-22T10:03:34.610Z,1.00
2018-06-22T10:06:02.357Z,1.00
2018-06-22T10:08:30.339Z,1.00
2018-06-22T10:10:58.201Z,1.03
2018-06-22T10:13:26.067Z,1.20
2018-06-22T10:15:54.687Z,1.00
2018-06-22T10:18:23.602Z,1.00
2018-06-22T10:20:51.697Z,1.37
2018-06-22T10:23:19.884Z,0.93
2018-06-22T10:25:47.753Z,0.90
2018-06-22T10:28:15.603Z,0.90
2018-06-22T10:30:43.704Z,1.13
2018-06-22T10:33:11.652Z,1.93
2018-06-22T10:35:39.617Z,1.00
2018-06-22T10:38:08.354Z,1.07
2018-06-22T10:40:36.386Z,0.90
2018-06-22T10:43:04.170Z,1.30
2018-06-22T10:45:32.016Z,0.93
2018-06-22T10:47:59.886Z,1.10
2018-06-22T10:50:27.766Z,1.03
2018-06-22T10:52:56.573Z,0.73
2018-06-22T10:55:24.284Z,0.90
2018-06-22T10:57:52.208Z,1.17
2018-06-22T11:00:20.153Z,0.70
2018-06-22T11:02:48.056Z,0.90
2018-06-22T11:05:15.874Z,1.10
2018-06-22T11:07:43.685Z,1.10
2018-06-22T11:10:11.516Z,0.93
2018-06-22T11:12:39.488Z,1.17
2018-06-22T11:15:08.165Z,0.93
2018-06-22T11:17:36.069Z,1.10
2018-06-22T11:20:04.004Z,1.10
2018-06-22T11:22:31.969Z,1.00
2018-06-22T11:24:59.834Z,1.00
2018-06-22T11:27:27.974Z,0.97
2018-06-22T11:29:55.777Z,1.07
2018-06-22T11:32:23.464Z,1.20
2018-06-22T11:34:52.212Z,1.07
2018-06-22T11:37:19.981Z,0.83
2018-06-22T11:39:48.211Z,0.70
2018-06-22T11:42:16.226Z,1.10
2018-06-22T11:44:44.020Z,0.97
2018-06-22T11:47:11.805Z,0.90
2018-06-22T11:49:39.668Z,1.20
2018-06-22T11:52:07.544Z,1.63
2018-06-22T11:54:35.404Z,1.70
2018-06-22T11:57:03.335Z,1.73
2018-06-22T11:59:31.062Z,1.90
2018-06-22T12:01:58.789Z,1.90
2018-06-22T12:04:26.682Z,1.67
2018-06-22T12:06:54.516Z,1.90
2018-06-22T12:09:22.311Z,1.10
2018-06-22T12:11:50.178Z,1.40
2018-06-22T12:14:18.046Z,1.17
2018-06-22T12:16:45.810Z,1.13
2018-06-22T12:19:13.733Z,1.10
2018-06-22T12:21:42.446Z,1.53
2018-06-22T12:24:10.380Z,1.07
2018-06-22T12:26:38.652Z,1.07
2018-06-22T12:29:06.472Z,1.37
2018-06-22T12:31:34.522Z,1.20
2018-06-22T12:34:02.903Z,1.20
2018-06-22T12:36:30.866Z,1.47
2018-06-22T12:38:58.980Z,1.40
2018-06-22T12:41:27.969Z,1.30
2018-06-22T12:43:55.803Z,1.37
2018-06-22T12:46:23.706Z,1.50
2018-06-22T12:48:51.798Z,1.20
2018-06-22T12:51:19.662Z,1.47
2018-06-22T12:53:48.338Z,1.23
2018-06-22T12:56:16.796Z,1.27
2018-06-22T12:58:44.656Z,1.10
2018-06-22T13:01:13.528Z,1.23
2018-06-22T13:03:41.408Z,1.27
2018-06-22T13:06:09.115Z,1.27
2018-06-22T13:08:36.963Z,1.40
2018-06-22T13:11:05.674Z,1.97
2018-06-22T13:13:33.567Z,1.10
2018-06-22T13:16:02.644Z,1.20
2018-06-22T13:18:30.844Z,1.57
2018-06-22T13:20:58.531Z,1.50
2018-06-22T13:23:26.322Z,1.40
2018-06-22T13:25:54.168Z,1.33
2018-06-22T13:28:22.439Z,1.20
2018-06-22T13:30:50.225Z,1.10
2018-06-22T13:33:17.809Z,1.27
2018-06-22T13:35:45.455Z,1.00
2018-06-22T13:38:13.308Z,1.10
2018-06-22T13:40:41.181Z,1.20
2018-06-22T13:43:09.204Z,1.20
2018-06-22T13:45:37.042Z,1.20
2018-06-22T13:48:04.780Z,1.30
2018-06-22T13:50:32.662Z,1.50
2018-06-22T13:53:00.519Z,1.10
2018-06-22T13:55:28.430Z,1.07
2018-06-22T13:57:56.261Z,1.20
2018-06-22T14:00:24.146Z,1.40
2018-06-22T14:02:55.739Z,1.30
2018-06-22T14:05:29.706Z,1.23
2018-06-22T14:07:57.552Z,1.17
2018-06-22T14:10:25.359Z,1.30
2018-06-22T14:12:53.212Z,1.20
2018-06-22T14:15:21.098Z,1.17
2018-06-22T14:17:48.973Z,1.50
2018-06-22T14:20:16.892Z,1.03
2018-06-22T14:22:45.217Z,1.07
2018-06-22T14:25:14.068Z,1.40
2018-06-22T14:27:42.041Z,1.20
2018-06-22T14:30:10.127Z,1.07
2018-06-22T14:32:43.345Z,1.17
2018-06-22T14:35:11.804Z,0.90
2018-06-22T14:57:10.425Z,1.10
2018-06-22T14:59:43.777Z,0.83
2018-06-22T15:02:27.617Z,0.80
2018-06-22T15:05:01.217Z,0.90
2018-06-22T15:07:34.260Z,1.30
2018-06-22T15:10:03.063Z,1.00
2018-06-22T15:12:30.816Z,1.20
2018-06-22T15:14:58.925Z,1.00
2018-06-22T15:17:26.796Z,1.00
2018-06-22T15:19:54.758Z,0.90
2018-06-22T15:22:22.872Z,1.00
2018-06-22T15:24:50.880Z,0.93
2018-06-22T15:27:19.197Z,1.10
2018-06-22T15:29:46.962Z,0.87
2018-06-22T15:32:14.793Z,0.70
2018-06-22T15:34:47.793Z,0.90
2018-06-22T15:37:21.211Z,0.70
2018-06-22T15:39:54.457Z,0.80
2018-06-22T15:42:27.932Z,0.70
2018-06-22T15:45:01.112Z,0.70
2018-06-22T15:47:35.264Z,0.70
2018-06-22T15:50:08.657Z,0.83
2018-06-22T15:53:40.514Z,0.63
2018-06-22T15:56:09.674Z,0.70
2018-06-22T15:58:38.386Z,1.03
2018-06-22T16:01:06.492Z,0.60
2018-06-22T16:03:39.798Z,0.63
2018-06-22T16:06:07.618Z,0.50
2018-06-22T16:08:36.062Z,0.60
2018-06-22T16:11:04.028Z,0.60
2018-06-22T16:13:31.993Z,0.80
2018-06-22T16:17:05.713Z,0.67
2018-06-22T16:19:38.975Z,0.60
2018-06-22T16:22:12.353Z,0.90
2018-06-22T16:24:45.318Z,0.87
2018-06-22T16:27:13.332Z,0.83
2018-06-22T16:29:41.115Z,0.60
2018-06-22T16:32:08.969Z,0.70
2018-06-22T16:34:36.933Z,0.60
2018-06-22T16:37:04.828Z,0.80
2018-06-22T16:39:32.825Z,0.50
2018-06-22T16:42:00.781Z,0.70
2018-06-22T16:44:28.740Z,0.60
2018-06-22T16:46:56.600Z,0.60
2018-06-22T16:49:24.778Z,0.93
2018-06-22T16:51:53.394Z,0.60
2018-06-22T16:54:21.212Z,0.70
2018-06-22T16:56:48.985Z,0.60
2018-06-22T16:59:17.332Z,0.70
2018-06-22T17:01:45.265Z,0.70
2018-06-22T17:04:15.430Z,0.70
2018-06-22T17:07:49.436Z,0.80
2018-06-22T17:10:22.646Z,0.80
2018-06-22T17:12:55.860Z,0.60
2018-06-22T17:15:29.140Z,0.73
2018-06-22T17:18:02.778Z,0.80
2018-06-22T17:20:31.152Z,0.87
2018-06-22T17:22:59.062Z,0.80
2018-06-22T17:25:26.910Z,0.70
2018-06-22T17:27:55.253Z,0.70
2018-06-22T17:30:23.195Z,0.73
2018-06-22T17:32:51.605Z,0.80
2018-06-22T17:35:19.504Z,0.80
2018-06-22T17:37:47.356Z,0.80
2018-06-22T17:40:15.464Z,0.67
2018-06-22T17:42:43.386Z,0.70
2018-06-22T17:45:11.420Z,1.17
2018-06-22T17:47:39.264Z,0.80
2018-06-22T17:50:12.883Z,0.70
2018-06-22T17:52:40.956Z,0.87
2018-06-22T17:55:08.779Z,0.80
2018-06-22T17:57:36.730Z,0.90
2018-06-22T18:00:10.230Z,0.80
2018-06-22T18:02:43.246Z,0.80
2018-06-22T18:05:16.448Z,0.80
2018-06-22T18:07:46.469Z,0.83
2018-06-22T18:10:19.552Z,0.80
2018-06-22T18:12:49.846Z,0.80
2018-06-22T18:15:19.130Z,0.80
2018-06-22T18:17:47.276Z,1.00
2018-06-22T18:20:15.452Z,0.90
2018-06-22T18:22:44.545Z,1.10
2018-06-22T18:25:12.997Z,0.80
2018-06-22T18:27:41.493Z,0.80
2018-06-22T18:30:12.000Z,1.00
2018-06-22T18:32:39.930Z,1.00
2018-06-22T18:35:09.358Z,0.90
2018-06-22T18:37:37.260Z,0.90
2018-06-22T18:40:05.094Z,1.20
2018-06-22T18:42:33.026Z,1.10
2018-06-22T18:45:00.960Z,1.13
2018-06-22T18:47:28.808Z,1.07
2018-06-22T18:49:56.940Z,1.17
2018-06-22T18:52:29.938Z,1.13
2018-06-22T18:55:03.080Z,1.00
2018-06-22T18:57:36.388Z,1.00
2018-06-22T19:00:09.524Z,1.00
2018-06-22T19:02:43.492Z,1.43
2018-06-22T19:05:11.399Z,1.20
2018-06-22T19:07:39.366Z,1.20
2018-06-22T19:10:07.422Z,1.20
2018-06-22T19:12:36.144Z,1.40
2018-06-22T19:15:04.365Z,1.10
2018-06-22T19:17:32.545Z,1.30
2018-06-22T19:20:00.561Z,1.30
2018-06-22T19:22:28.569Z,1.30
2018-06-22T19:24:57.320Z,1.23
2018-06-22T19:27:25.245Z,1.30
2018-06-22T19:29:54.327Z,1.33
2018-06-22T19:32:22.355Z,1.50
2018-06-22T19:34:55.394Z,1.30
2018-06-22T19:37:24.729Z,1.40
2018-06-22T19:39:52.707Z,1.43
2018-06-22T19:42:20.625Z,1.50
2018-06-22T19:44:56.088Z,1.10
2018-06-22T19:47:29.272Z,1.27
2018-06-22T19:50:02.481Z,1.50
2018-06-22T19:52:35.516Z,1.57
2018-06-22T19:55:03.872Z,1.90
2018-06-22T19:57:31.778Z,1.33
2018-06-22T19:59:59.814Z,1.37
2018-06-22T20:02:28.021Z,1.40
2018-06-22T20:04:56.752Z,1.50
2018-06-22T20:07:24.880Z,1.43
2018-06-22T20:09:53.396Z,1.70
2018-06-22T20:12:21.284Z,1.87
2018-06-22T20:14:49.835Z,1.33
2018-06-22T20:17:17.916Z,1.30
2018-06-22T20:19:46.342Z,1.70
2018-06-22T20:22:14.286Z,1.62
2018-06-22T20:24:48.174Z,1.47
2018-06-22T20:27:17.307Z,1.23
2018-06-22T20:29:46.029Z,1.43
2018-06-22T20:32:16.110Z,1.40
2018-06-22T20:34:49.525Z,1.17
2018-06-22T20:37:22.568Z,1.77
2018-06-22T20:39:55.826Z,1.33
2018-06-22T20:42:30.192Z,1.50
2018-06-22T20:45:03.169Z,1.60
2018-06-22T20:47:36.636Z,1.30
2018-06-22T20:50:10.045Z,1.70
2018-06-22T20:52:39.977Z,1.53
2018-06-22T20:55:08.161Z,1.30
2018-06-22T20:57:35.997Z,1.40
2018-06-22T21:00:03.893Z,1.30
2018-06-22T21:02:31.705Z,1.50
2018-06-22T21:04:59.580Z,1.50
2018-06-22T21:07:27.497Z,1.53
2018-06-22T21:09:55.256Z,1.40
2018-06-22T21:12:26.251Z,1.40
2018-06-22T21:14:52.872Z,1.60
2018-06-22T21:17:21.226Z,1.80
2018-06-22T21:19:49.467Z,1.77
2018-06-22T21:22:17.715Z,1.90
2018-06-22T21:27:31.031Z,1.60
2018-06-22T21:30:03.924Z,1.57
2018-06-22T21:32:37.976Z,1.80
2018-06-22T21:35:11.833Z,1.70
2018-06-22T21:37:44.815Z,1.63
2018-06-22T21:40:12.793Z,1.77
2018-06-22T21:42:40.646Z,2.00
2018-06-22T21:45:08.740Z,1.90
2018-06-22T21:47:37.689Z,2.30
2018-06-22T21:50:05.620Z,2.50
2018-06-22T21:52:34.060Z,2.30
2018-06-22T21:55:01.833Z,2.33
2018-06-22T21:57:29.929Z,2.60
2018-06-22T21:59:57.780Z,2.40
2018-06-22T22:02:26.285Z,2.40
2018-06-22T22:04:54.125Z,2.43
2018-06-22T22:07:22.040Z,2.43
2018-06-22T22:09:50.392Z,2.23
2018-06-22T22:12:18.277Z,2.70
2018-06-22T22:14:46.472Z,2.90
2018-06-22T22:17:15.133Z,2.57
2018-06-22T22:19:43.735Z,2.57
2018-06-22T22:22:11.621Z,2.73
2018-06-22T22:24:39.415Z,2.33
2018-06-22T22:27:07.361Z,2.93
2018-06-22T22:29:36.135Z,2.33
2018-06-22T22:32:06.114Z,2.10
2018-06-22T22:34:34.102Z,2.10
2018-06-22T22:37:01.833Z,2.17
2018-06-22T22:39:30.345Z,2.40
2018-06-22T22:41:58.130Z,2.13
2018-06-22T22:44:26.565Z,1.97
2018-06-22T22:46:54.653Z,1.93
2018-06-22T22:49:22.520Z,1.80
2018-06-22T22:51:51.513Z,1.50
2018-06-22T22:54:20.622Z,1.60
2018-06-22T22:56:48.461Z,1.70
2018-06-22T22:59:17.216Z,1.60
2018-06-22T23:01:45.536Z,1.47
2018-06-22T23:04:13.328Z,1.50
2018-06-22T23:06:42.072Z,1.57
2018-06-22T23:09:10.228Z,1.47
2018-06-22T23:11:38.480Z,1.70
2018-06-22T23:14:07.021Z,1.80
2018-06-22T23:16:35.019Z,1.80
2018-06-22T23:19:02.869Z,1.67
2018-06-22T23:21:31.057Z,1.77
2018-06-22T23:23:59.277Z,1.43
2018-06-22T23:26:27.835Z,1.50
2018-06-22T23:28:55.698Z,1.30
2018-06-22T23:31:23.536Z,1.30
2018-06-22T23:33:51.510Z,1.23
2018-06-22T23:36:20.204Z,1.43
2018-06-22T23:38:47.952Z,1.13
2018-06-22T23:41:15.779Z,1.60
2018-06-22T23:43:43.693Z,1.30
2018-06-22T23:46:11.648Z,1.53
2018-06-22T23:48:39.417Z,1.40
2018-06-22T23:51:07.645Z,1.33
2018-06-22T23:53:35.564Z,1.43
2018-06-22T23:56:03.497Z,1.10
2018-06-22T23:58:31.405Z,1.40
